createdAt,value
2017-12-09T00:07:58.000Z,37.1
2017-12-09T00:17:58.000Z,37.1
2017-12-09T00:27:58.000Z,36.8
2017-12-09T00:37:58.000Z,36.4
2017-12-09T00:47:58.000Z,37.7
2017-12-09T00:57:58.000Z,36.5
2017-12-09T01:07:59.000Z,36.3
2017-12-09T01:17:59.000Z,36.2
2017-12-09T01:27:59.000Z,36.5
2017-12-09T01:37:59.000Z,36.4
2017-12-09T01:48:00.000Z,36.7
2017-12-09T01:57:59.000Z,36.7
2017-12-09T02:07:59.000Z,36.8
2017-12-09T02:17:59.000Z,36.5
2017-12-09T02:27:59.000Z,36.7
2017-12-09T02:37:59.000Z,36.6
2017-12-09T02:47:59.000Z,36.2
2017-12-09T02:57:59.000Z,36.5
2017-12-09T03:07:59.000Z,36.5
2017-12-09T03:17:59.000Z,36.4
2017-12-09T03:27:59.000Z,36.2
2017-12-09T03:38:00.000Z,39
2017-12-09T03:47:59.000Z,37.1
2017-12-09T03:57:59.000Z,36.4
2017-12-09T04:07:59.000Z,36.4
2017-12-09T04:17:59.000Z,36.6
2017-12-09T04:27:59.000Z,36.2
2017-12-09T04:37:59.000Z,36.1
2017-12-09T04:47:59.000Z,36
2017-12-09T04:57:59.000Z,36.9
2017-12-09T05:07:59.000Z,35.9
2017-12-09T05:17:59.000Z,35.7
2017-12-09T05:27:59.000Z,35.6
2017-12-09T05:37:59.000Z,35.3
2017-12-09T05:47:59.000Z,35.5
2017-12-09T05:57:59.000Z,35.9
2017-12-09T06:08:01.000Z,36.1
2017-12-09T06:17:59.000Z,36.5
2017-12-09T06:27:59.000Z,36.8
2017-12-09T06:37:59.000Z,37
2017-12-09T06:48:00.000Z,37
2017-12-09T06:57:59.000Z,37.1
2017-12-09T07:07:59.000Z,37.3
2017-12-09T07:17:59.000Z,37.5
2017-12-09T07:27:59.000Z,37.8
2017-12-09T07:37:59.000Z,37.9
2017-12-09T07:47:59.000Z,37.8
2017-12-09T07:57:59.000Z,37.8
2017-12-09T08:08:00.000Z,38.1
2017-12-09T08:18:00.000Z,37.8
2017-12-09T08:28:00.000Z,37.5
2017-12-09T08:38:00.000Z,37.6
2017-12-09T08:48:00.000Z,37.3
2017-12-09T08:58:00.000Z,39.3
2017-12-09T09:08:00.000Z,48
2017-12-09T09:18:00.000Z,51.6
2017-12-09T09:28:02.000Z,49.5
2017-12-09T09:38:00.000Z,45
2017-12-09T09:48:00.000Z,49.7
2017-12-09T09:58:00.000Z,50.9
2017-12-09T10:08:00.000Z,51.5
2017-12-09T10:18:01.000Z,51
2017-12-09T10:28:00.000Z,50.9
2017-12-09T10:38:00.000Z,51
2017-12-09T10:48:00.000Z,50.9
2017-12-09T10:58:00.000Z,50.9
2017-12-09T11:08:00.000Z,50.8
2017-12-09T11:18:00.000Z,50.8
2017-12-09T11:28:00.000Z,50.9
2017-12-09T11:38:00.000Z,51
2017-12-09T11:48:00.000Z,51.1
2017-12-09T11:58:00.000Z,51.1
2017-12-09T12:08:00.000Z,51.7
2017-12-09T12:18:00.000Z,49.3
2017-12-09T12:28:00.000Z,49.9
2017-12-09T12:38:00.000Z,50.3
2017-12-09T12:48:00.000Z,51
2017-12-09T12:58:00.000Z,51.6
2017-12-09T13:08:03.000Z,50.6
2017-12-09T13:18:00.000Z,51
2017-12-09T13:28:00.000Z,52.8
2017-12-09T13:38:00.000Z,53.3
2017-12-09T13:48:00.000Z,53.6
2017-12-09T13:58:00.000Z,54.1
2017-12-09T14:08:00.000Z,52.8
2017-12-09T14:18:00.000Z,35.1
2017-12-09T14:28:04.000Z,46.7
2017-12-09T14:38:00.000Z,49.5
2017-12-09T14:48:00.000Z,41.3
2017-12-09T14:58:00.000Z,48.2
2017-12-09T15:08:00.000Z,48.4
2017-12-09T15:18:00.000Z,43.3
2017-12-09T15:28:01.000Z,48.9
2017-12-09T15:38:01.000Z,49.7
2017-12-09T15:48:01.000Z,50.8
2017-12-09T15:58:01.000Z,51.3
2017-12-09T16:08:01.000Z,51.1
2017-12-09T16:18:01.000Z,51.3
2017-12-09T16:28:01.000Z,51.6
2017-12-09T16:38:01.000Z,51.7
2017-12-09T16:48:01.000Z,52
2017-12-09T16:58:01.000Z,52
2017-12-09T17:18:01.000Z,52
2017-12-09T17:28:01.000Z,52.1
2017-12-09T17:38:01.000Z,49.7
2017-12-09T17:48:01.000Z,50.4
2017-12-09T17:58:01.000Z,51.1
2017-12-09T18:08:01.000Z,51.3
2017-12-09T18:18:01.000Z,51.3
2017-12-09T18:28:01.000Z,51.4
2017-12-09T18:48:01.000Z,51.3
2017-12-09T18:58:01.000Z,51
2017-12-09T19:08:01.000Z,51.1
2017-12-09T19:18:01.000Z,48.8
2017-12-09T19:28:01.000Z,51.9
2017-12-09T19:38:01.000Z,53.1
2017-12-09T19:48:01.000Z,54.5
2017-12-09T19:58:01.000Z,54.1
2017-12-09T20:08:01.000Z,54.7
2017-12-09T20:18:01.000Z,52.7
2017-12-09T20:28:01.000Z,51.2
2017-12-09T20:38:01.000Z,52.5
2017-12-09T20:48:01.000Z,52.3
2017-12-09T20:58:01.000Z,52.6
2017-12-09T21:08:01.000Z,51.7
2017-12-09T21:18:01.000Z,50.7
2017-12-09T21:28:02.000Z,38
2017-12-09T21:38:01.000Z,45.7
2017-12-09T21:48:01.000Z,45.8
2017-12-09T21:58:01.000Z,47
2017-12-09T22:08:01.000Z,38.7
2017-12-09T22:18:02.000Z,46.4
2017-12-09T22:28:02.000Z,44.7
2017-12-09T22:38:02.000Z,42.7
2017-12-09T22:48:02.000Z,44.5
2017-12-09T22:58:02.000Z,36.4
2017-12-09T23:08:02.000Z,35.5
2017-12-09T23:18:02.000Z,42.8
2017-12-09T23:28:02.000Z,40.3
2017-12-09T23:38:02.000Z,39.2
2017-12-09T23:48:02.000Z,39.2
2017-12-09T23:58:02.000Z,43.9
